EZY78ME EGPH-EGGD
Flight info
| Callsign | EZY78ME |
|---|---|
| Flight time | N/A |
| Altitude | 33000 |
| Route | GOSAM P600 FENIK L612 NAVSO DCT ADZOP DCT EGTOC DCT NOKIN/N0435F320 DCT KARNO DCT ALHUP DCT LUCSA/N0388F230 N862 WEVBE |
| Aircraft | A320/M-SDE3FGHIRWY/LB1 |
Departure
| Time | 2026-04-24 20:47 |
|---|---|
| Airport | Edinburgh Airport (EGPH) |
Arrival
| Time | N/A |
|---|---|
| Airport | Bristol Airport (EGGD) |
| Time | Latitude | Longitude | Altitude | Speed | Heading |
|---|---|---|---|---|---|
| 2026-04-24 20:03 | 55.94751 | -3.36615 | 117 ft | 0 kts | 89° |
| 2026-04-24 20:36 | 55.94751 | -3.36636 | 112 ft | 4 kts | 86° |
| 2026-04-24 20:37 | 55.94747 | -3.36683 | 113 ft | 4 kts | 71° |
| 2026-04-24 20:37 | 55.94735 | -3.36721 | 112 ft | 4 kts | 30° |
| 2026-04-24 20:37 | 55.94721 | -3.36727 | 112 ft | 1 kts | 345° |
| 2026-04-24 20:37 | 55.94719 | -3.36726 | 112 ft | 0 kts | 345° |
| 2026-04-24 20:39 | 55.94723 | -3.36731 | 113 ft | 1 kts | 334° |
| 2026-04-24 20:39 | 55.94733 | -3.36738 | 114 ft | 1 kts | 353° |
| 2026-04-24 20:39 | 55.94734 | -3.36737 | 114 ft | 0 kts | 359° |
| 2026-04-24 20:41 | 55.94820 | -3.36775 | 116 ft | 19 kts | 1° |
| 2026-04-24 20:42 | 55.94923 | -3.36872 | 115 ft | 17 kts | 274° |
| 2026-04-24 20:42 | 55.94874 | -3.37053 | 113 ft | 16 kts | 239° |
| 2026-04-24 20:42 | 55.94819 | -3.37211 | 114 ft | 14 kts | 237° |
| 2026-04-24 20:42 | 55.94769 | -3.37356 | 113 ft | 13 kts | 240° |
| 2026-04-24 20:43 | 55.94725 | -3.37493 | 111 ft | 12 kts | 240° |
| 2026-04-24 20:43 | 55.94683 | -3.37618 | 114 ft | 11 kts | 239° |
| 2026-04-24 20:43 | 55.94644 | -3.37734 | 113 ft | 10 kts | 237° |
| 2026-04-24 20:43 | 55.94605 | -3.37843 | 114 ft | 11 kts | 237° |
| 2026-04-24 20:44 | 55.94565 | -3.37955 | 115 ft | 11 kts | 239° |
| 2026-04-24 20:44 | 55.94497 | -3.38161 | 114 ft | 27 kts | 238° |
| 2026-04-24 20:44 | 55.94395 | -3.38461 | 114 ft | 29 kts | 239° |
| 2026-04-24 20:44 | 55.94298 | -3.38745 | 111 ft | 20 kts | 238° |
| 2026-04-24 20:45 | 55.94324 | -3.38906 | 116 ft | 14 kts | 324° |
| 2026-04-24 20:45 | 55.94417 | -3.38954 | 112 ft | 15 kts | 33° |
| 2026-04-24 20:45 | 55.94441 | -3.38895 | 114 ft | 0 kts | 59° |
| 2026-04-24 20:46 | 55.94442 | -3.38893 | 114 ft | 2 kts | 59° |
| 2026-04-24 20:46 | 55.94536 | -3.38615 | 112 ft | 64 kts | 59° |
| 2026-04-24 20:46 | 55.94890 | -3.37570 | 113 ft | 130 kts | 59° |
| 2026-04-24 20:47 | 55.95427 | -3.35979 | 405 ft | 158 kts | 58° |
| 2026-04-24 20:47 | 55.96033 | -3.34295 | 1124 ft | 164 kts | 51° |
| 2026-04-24 20:47 | 55.96905 | -3.32802 | 1650 ft | 184 kts | 41° |
| 2026-04-24 20:47 | 55.97917 | -3.31189 | 2067 ft | 206 kts | 40° |
| 2026-04-24 20:48 | 55.99043 | -3.29403 | 2497 ft | 226 kts | 39° |
| 2026-04-24 20:48 | 56.00490 | -3.28126 | 2959 ft | 249 kts | 6° |
| 2026-04-24 20:48 | 56.02196 | -3.28745 | 3773 ft | 259 kts | 328° |
| 2026-04-24 20:48 | 56.03392 | -3.31127 | 4769 ft | 265 kts | 294° |
| 2026-04-24 20:49 | 56.03651 | -3.34405 | 5610 ft | 274 kts | 265° |
| 2026-04-24 20:49 | 56.03252 | -3.37722 | 5909 ft | 273 kts | 253° |
| 2026-04-24 20:49 | 56.02617 | -3.40953 | 6767 ft | 274 kts | 251° |
| 2026-04-24 20:49 | 56.01976 | -3.44172 | 7793 ft | 276 kts | 253° |
| 2026-04-24 20:50 | 56.01374 | -3.47444 | 8779 ft | 279 kts | 255° |
| 2026-04-24 20:50 | 56.00814 | -3.50792 | 9760 ft | 282 kts | 256° |
| 2026-04-24 20:50 | 56.00285 | -3.54209 | 10546 ft | 293 kts | 257° |
| 2026-04-24 20:50 | 55.99747 | -3.57889 | 10907 ft | 317 kts | 258° |
| 2026-04-24 20:51 | 55.99190 | -3.61798 | 11483 ft | 330 kts | 258° |
| 2026-04-24 20:51 | 55.98622 | -3.65798 | 12289 ft | 335 kts | 258° |
| 2026-04-24 20:51 | 55.98043 | -3.69873 | 13132 ft | 340 kts | 258° |
| 2026-04-24 20:51 | 55.97456 | -3.73981 | 13962 ft | 344 kts | 258° |
| 2026-04-24 20:52 | 55.96859 | -3.78144 | 14710 ft | 348 kts | 258° |
| 2026-04-24 20:52 | 55.96252 | -3.82340 | 15443 ft | 351 kts | 257° |
| 2026-04-24 20:52 | 55.95633 | -3.86580 | 16176 ft | 355 kts | 257° |
| 2026-04-24 20:52 | 55.95007 | -3.90859 | 16906 ft | 358 kts | 257° |
| 2026-04-24 20:53 | 55.94375 | -3.95186 | 17628 ft | 362 kts | 256° |
| 2026-04-24 20:53 | 55.93531 | -3.99436 | 18316 ft | 367 kts | 244° |
| 2026-04-24 20:53 | 55.92097 | -4.03232 | 18936 ft | 372 kts | 229° |
| 2026-04-24 20:53 | 55.90142 | -4.06284 | 19532 ft | 377 kts | 216° |
| 2026-04-24 20:54 | 55.87966 | -4.08927 | 20159 ft | 380 kts | 215° |
| 2026-04-24 20:54 | 55.85775 | -4.11596 | 20761 ft | 383 kts | 216° |
| 2026-04-24 20:54 | 55.83569 | -4.14291 | 21357 ft | 386 kts | 216° |
| 2026-04-24 20:54 | 55.81344 | -4.17008 | 21931 ft | 389 kts | 216° |
| 2026-04-24 20:55 | 55.79102 | -4.19745 | 22507 ft | 393 kts | 216° |
| 2026-04-24 20:55 | 55.76778 | -4.22331 | 23071 ft | 397 kts | 207° |
| 2026-04-24 20:55 | 55.74183 | -4.24065 | 23619 ft | 402 kts | 195° |
| 2026-04-24 20:55 | 55.71405 | -4.24782 | 24100 ft | 407 kts | 183° |
| 2026-04-24 20:56 | 55.68569 | -4.24460 | 24546 ft | 411 kts | 171° |
| 2026-04-24 20:56 | 55.65797 | -4.23136 | 25002 ft | 415 kts | 160° |
| 2026-04-24 20:56 | 55.63162 | -4.20994 | 25436 ft | 419 kts | 152° |
| 2026-04-24 20:56 | 55.60600 | -4.18480 | 25862 ft | 422 kts | 152° |
| 2026-04-24 20:57 | 55.58026 | -4.15953 | 26292 ft | 425 kts | 152° |
| 2026-04-24 20:57 | 55.55434 | -4.13414 | 26710 ft | 428 kts | 152° |
| 2026-04-24 20:57 | 55.52819 | -4.10858 | 27123 ft | 431 kts | 152° |
| 2026-04-24 20:57 | 55.50186 | -4.08290 | 27539 ft | 434 kts | 152° |
| 2026-04-24 20:58 | 55.47537 | -4.05712 | 27941 ft | 436 kts | 152° |
| 2026-04-24 20:58 | 55.44873 | -4.03123 | 28346 ft | 439 kts | 152° |
| 2026-04-24 20:58 | 55.42190 | -4.00521 | 28748 ft | 442 kts | 152° |
| 2026-04-24 20:58 | 55.39483 | -3.97907 | 29148 ft | 445 kts | 152° |
| 2026-04-24 20:59 | 55.36759 | -3.95280 | 29522 ft | 448 kts | 152° |
| 2026-04-24 20:59 | 55.34024 | -3.92640 | 29902 ft | 450 kts | 152° |
| 2026-04-24 20:59 | 55.31269 | -3.89982 | 30257 ft | 453 kts | 152° |
| 2026-04-24 20:59 | 55.28497 | -3.87312 | 30569 ft | 456 kts | 152° |
| 2026-04-24 21:00 | 55.25707 | -3.84630 | 30869 ft | 458 kts | 153° |
| 2026-04-24 21:00 | 55.22884 | -3.82014 | 31146 ft | 460 kts | 156° |
| 2026-04-24 21:00 | 55.19892 | -3.80018 | 31421 ft | 461 kts | 164° |
| 2026-04-24 21:00 | 55.16826 | -3.78346 | 31689 ft | 463 kts | 164° |
| 2026-04-24 21:01 | 55.13748 | -3.76664 | 32036 ft | 463 kts | 164° |
| 2026-04-24 21:01 | 55.10676 | -3.74982 | 32465 ft | 462 kts | 164° |
| 2026-04-24 21:01 | 55.07606 | -3.73302 | 32881 ft | 462 kts | 164° |
| 2026-04-24 21:01 | 55.04544 | -3.71627 | 33196 ft | 462 kts | 164° |
| 2026-04-24 21:02 | 54.98508 | -3.68333 | 33264 ft | 447 kts | 164° |
| 2026-04-24 21:02 | 54.92598 | -3.65128 | 33263 ft | 444 kts | 164° |
| 2026-04-24 21:03 | 54.86699 | -3.61938 | 33264 ft | 444 kts | 164° |
| 2026-04-24 21:03 | 54.80806 | -3.58750 | 33263 ft | 443 kts | 164° |
| 2026-04-24 21:04 | 54.74915 | -3.55575 | 33260 ft | 443 kts | 164° |
| 2026-04-24 21:04 | 54.69030 | -3.52407 | 33253 ft | 443 kts | 164° |
| 2026-04-24 21:05 | 54.63136 | -3.49258 | 33253 ft | 443 kts | 164° |
| 2026-04-24 21:05 | 54.57248 | -3.46134 | 33251 ft | 443 kts | 164° |
| 2026-04-24 21:06 | 54.51356 | -3.43006 | 33256 ft | 443 kts | 164° |
| 2026-04-24 21:06 | 54.45472 | -3.39880 | 33252 ft | 443 kts | 164° |
| 2026-04-24 21:07 | 54.39584 | -3.36763 | 33244 ft | 442 kts | 164° |
| 2026-04-24 21:07 | 54.33701 | -3.33658 | 33245 ft | 442 kts | 164° |
| 2026-04-24 21:08 | 54.27816 | -3.30570 | 33242 ft | 442 kts | 164° |
| 2026-04-24 21:08 | 54.21937 | -3.27500 | 33241 ft | 442 kts | 164° |
| 2026-04-24 21:09 | 54.15965 | -3.25210 | 33232 ft | 439 kts | 176° |
| 2026-04-24 21:09 | 54.09884 | -3.24256 | 33235 ft | 439 kts | 176° |
| 2026-04-24 21:10 | 54.03799 | -3.23292 | 33239 ft | 439 kts | 176° |
| 2026-04-24 21:10 | 53.97755 | -3.21858 | 33236 ft | 440 kts | 169° |
| 2026-04-24 21:11 | 53.91777 | -3.19588 | 33231 ft | 440 kts | 169° |
| 2026-04-24 21:11 | 53.85807 | -3.17314 | 33232 ft | 440 kts | 169° |
| 2026-04-24 21:12 | 53.85213 | -3.17089 | 33233 ft | 440 kts | 169° |